Latest Weather Observations for Macquarie Island

IDT60801

Issued at 12:05 am EDT Saturday 1 November 2014 (issued every 30 minutes, with the page automatically refreshed every 10 minutes)

About weather observations | Map of weather stations | Latest weather observations for TAS | Other Formats
Station Details ID: 300004 Name: MACQUARIE ISLAND Lat: -54.50 Lon: 158.94 Height: 6.0 m
Data from the previous 72 hours. | See also: Recent months at Macquarie Island
Date/Time
EDT
Temp
°C
App
Temp
°C
Dew
Point
Rel
Hum
%
Delta-T
°C
Wind Press
QNH
hPa
Press
MSL
hPa
Rain
since 9 am
mm
Dir
 
Spd
km/h
Gust
km/h
Spd
kts
Gust
kts
01/12:04am 3.2 -7.4 0.8 84 0.9 W 46 65 25 35 981.3 - 0.8
01/12:00am 2.9 -7.7 0.6 85 0.9 W 46 59 25 32 981.5 - 0.8
 
Date/Time
EDT
Temp
°C
App
Temp
°C
Dew
Point
Rel
Hum
%
Delta-T
°C
Wind Press
QNH
hPa
Press
MSL
hPa
Rain
since 9 am
mm
Dir
 
Spd
km/h
Gust
km/h
Spd
kts
Gust
kts
31/11:50pm 2.5 -10.1 0.2 85 0.9 W 56 74 30 40 981.6 - 0.8
31/11:30pm 3.3 -8.5 0.2 80 1.2 W 52 69 28 37 981.1 - 0.8
31/11:00pm 3.3 -9.5 0.2 80 1.2 W 57 70 31 38 981.0 - 0.8
31/10:33pm 3.7 -9.1 0.1 77 1.4 W 57 76 31 41 980.8 - 0.8
31/10:30pm 3.6 -10.0 -0.2 76 1.4 W 61 78 33 42 980.8 - 0.8
31/10:02pm 3.7 -9.5 0.2 78 1.3 W 59 78 32 42 980.4 - 0.8
31/10:00pm 3.6 -9.2 0.1 78 1.3 W 57 70 31 38 980.4 - 0.8
31/09:30pm 3.0 -9.2 0.2 82 1.0 W 54 76 29 41 980.4 - 0.8
31/09:00pm 3.5 -10.1 -0.1 77 1.4 W 61 80 33 43 979.8 980.1 0.8
31/08:31pm 3.7 -10.7 -0.3 75 1.5 WNW 65 83 35 45 979.5 - 0.8
31/08:30pm 3.6 -10.8 -0.2 76 1.4 WNW 65 80 35 43 979.4 - 0.8
31/08:00pm 4.0 -8.8 -0.2 74 1.6 W 57 80 31 43 979.0 - 0.8
31/07:30pm 3.8 -9.3 0.5 79 1.3 W 59 80 32 43 978.7 - 0.8
31/07:02pm 3.5 -9.2 0.6 81 1.1 W 57 76 31 41 978.5 - 0.8
31/07:00pm 3.5 -9.6 0.4 80 1.2 W 59 76 32 41 978.3 - 0.8
31/06:30pm 3.7 -10.3 -0.1 76 1.4 W 63 82 34 44 978.0 - 0.8
31/06:00pm 3.7 -10.9 0.9 82 1.1 W 67 91 36 49 977.6 977.9 0.8
31/05:30pm 3.7 -11.3 0.6 80 1.2 WNW 69 87 37 47 977.2 - 0.8
31/05:02pm 3.8 -10.9 -0.2 75 1.5 W 67 87 36 47 977.1 - 0.8
31/05:00pm 3.8 -11.3 0.0 76 1.4 W 69 83 37 45 976.9 - 0.8
31/04:44pm 3.6 -11.4 0.8 82 1.1 WNW 69 87 37 47 976.7 - 0.8
31/04:37pm 3.5 -12.8 0.7 82 1.1 NW 76 87 41 47 976.4 - 0.8
31/04:30pm 3.5 -9.6 0.9 83 1.0 W 59 87 32 47 976.8 - 0.8
31/04:00pm 4.0 -11.3 0.2 76 1.4 W 70 93 38 50 976.1 - 0.6
31/03:30pm 3.9 -11.1 0.8 80 1.2 WNW 69 93 37 50 975.8 - 0.6
31/03:00pm 3.9 -11.9 1.3 83 1.0 WNW 74 93 40 50 975.3 975.6 0.6
31/02:30pm 4.0 -11.6 0.5 78 1.3 WNW 72 95 39 51 974.8 - 0.6
31/02:00pm 3.6 -12.0 0.5 80 1.2 WNW 72 93 39 50 974.4 - 0.6
31/01:31pm 3.2 -11.0 0.9 85 0.9 WNW 65 87 35 47 974.3 - 0.4
31/01:30pm 3.2 -11.0 1.1 86 0.8 WNW 65 78 35 42 974.4 - 0.4
31/01:29pm 3.2 -10.9 1.3 87 0.7 WNW 65 78 35 42 974.5 - 0.4
31/01:10pm 3.3 -10.2 0.2 80 1.2 W 61 80 33 43 974.4 - 0.0
31/01:03pm 4.0 -12.5 -0.2 74 1.6 WNW 76 95 41 51 974.0 - 0.0
31/01:00pm 4.2 -12.7 -0.6 71 1.8 WNW 78 95 42 51 973.9 - 0.0
31/12:30pm 3.4 -12.3 -0.1 78 1.3 WNW 72 106 39 57 974.1 - 0.0
31/12:00pm 4.5 -10.6 0.1 73 1.7 WNW 69 95 37 51 974.0 974.3 0.0
31/11:39am 4.3 -10.8 0.1 74 1.6 WNW 69 95 37 51 974.0 - 0.0
31/11:38am 4.3 -9.3 0.1 74 1.6 NNW 61 83 33 45 974.0 - 0.0
31/11:36am 4.5 -9.0 0.3 74 1.6 N 61 72 33 39 973.9 - 0.0
31/11:30am 5.0 -8.8 0.8 74 1.6 NW 63 78 34 42 973.9 - 0.0
31/11:17am 4.5 -10.7 0.3 74 1.6 NW 70 89 38 48 974.1 - 0.0
31/11:10am 4.4 -11.3 -0.4 71 1.8 WNW 72 85 39 46 974.0 - 0.0
31/11:08am 4.3 -10.0 0.3 75 1.5 NNW 65 89 35 48 974.0 - 0.0
31/11:00am 3.9 -10.4 0.4 78 1.3 N 65 80 35 43 974.0 - 0.0
31/10:48am 4.0 -9.5 0.3 77 1.4 N 61 89 33 48 973.9 - 0.0
31/10:42am 4.5 -8.2 1.0 78 1.4 N 57 67 31 36 974.1 - 0.0
31/10:33am 4.0 -10.7 0.3 77 1.4 NW 67 85 36 46 974.1 - 0.0
31/10:30am 4.0 -11.0 0.5 78 1.3 NW 69 85 37 46 974.1 - 0.0
31/10:27am 4.3 -9.9 0.8 78 1.3 NW 65 80 35 43 974.1 - 0.0
31/10:26am 4.2 -8.3 0.9 79 1.3 N 56 74 30 40 974.2 - 0.0
31/10:19am 3.7 -8.4 1.1 83 1.0 N 54 61 29 33 974.4 - 0.0
31/10:03am 2.7 -10.9 0.1 83 1.0 NNW 61 70 33 38 974.4 - 0.0
31/10:01am 2.6 -11.0 0.0 83 1.0 N 61 67 33 36 974.5 - 0.0
31/10:00am 2.5 -12.6 0.1 84 0.9 WNW 69 91 37 49 974.4 - 0.0
31/09:49am 1.9 -15.4 -0.5 84 0.9 WNW 80 102 43 55 974.4 - 0.0
31/09:47am 3.0 -10.6 -0.1 80 1.2 NNW 61 109 33 59 974.3 - 0.0
31/09:36am 3.2 -10.6 1.1 86 0.8 NNW 63 72 34 39 974.6 - 0.0
31/09:33am 3.1 -11.9 0.8 85 0.9 NW 69 87 37 47 974.4 - 0.0
31/09:30am 2.7 -13.0 -0.2 81 1.1 WNW 72 87 39 47 974.3 - 0.0
31/09:28am 2.6 -12.5 -0.3 81 1.1 NNW 69 87 37 47 974.4 - 0.0
31/09:27am 2.7 -12.4 -0.1 82 1.0 NW 69 78 37 42 974.4 - 0.0
31/09:17am 3.5 -13.3 -0.1 77 1.3 WNW 78 96 42 52 974.2 - 0.0
31/09:14am 3.4 -13.1 -0.2 77 1.3 WNW 76 93 41 50 974.3 - 0.0
31/09:11am 4.2 -13.6 0.0 74 1.6 NNW 83 100 45 54 973.7 - 0.0
31/09:02am 4.4 -9.9 0.0 73 1.7 N 65 83 35 45 974.0 - 0.0
31/09:00am 4.4 -9.5 0.2 74 1.6 N 63 78 34 42 974.2 974.5 3.0
31/08:57am 4.4 -9.9 0.2 74 1.6 N 65 83 35 45 974.3 - 3.0
31/08:49am 4.2 -11.5 -0.6 71 1.8 N 72 83 39 45 974.2 - 3.0
31/08:43am 4.4 -10.7 0.2 74 1.6 NW 69 87 37 47 974.3 - 3.0
31/08:35am 4.2 -11.5 -0.6 71 1.8 WNW 72 87 39 47 974.2 - 3.0
31/08:33am 4.1 -12.0 -0.5 72 1.7 N 74 91 40 49 974.2 - 3.0
31/08:32am 4.0 -11.4 -1.0 70 1.8 NW 70 91 38 49 974.1 - 3.0
31/08:30am 4.1 -11.7 -0.7 71 1.8 NW 72 87 39 47 974.1 - 3.0
31/08:29am 4.2 -11.6 -0.8 70 1.8 NW 72 87 39 47 974.1 - 3.0
31/08:21am 3.9 -11.2 0.1 76 1.4 N 69 87 37 47 974.1 - 3.0
31/08:16am 4.0 -11.0 0.3 77 1.4 N 69 78 37 42 974.2 - 3.0
31/08:11am 4.2 -10.5 0.4 76 1.4 NNW 67 85 36 46 974.2 - 3.0
31/08:00am 3.8 -11.5 -0.2 75 1.5 NNW 70 87 38 47 974.1 - 3.0
31/07:41am 3.6 -11.6 0.3 79 1.2 N 70 89 38 48 974.1 - 3.0
31/07:36am 3.4 -13.1 -0.2 77 1.3 N 76 87 41 47 973.9 - 3.0
31/07:32am 3.3 -9.2 1.0 85 0.9 N 56 74 30 40 974.3 - 3.0
31/07:30am 3.1 -9.6 0.8 85 0.9 N 57 67 31 36 974.4 - 3.0
31/07:26am 2.9 -9.2 1.0 87 0.7 NNE 54 65 29 35 974.6 - 3.0
31/07:18am 2.4 -10.1 0.6 88 0.7 NW 56 69 30 37 974.8 - 3.0
31/07:11am 2.1 -10.1 0.5 89 0.6 NNW 54 65 29 35 974.8 - 2.2
31/07:01am 2.7 -10.0 -0.2 81 1.1 W 56 74 30 40 974.9 - 2.2
31/07:00am 3.2 -9.0 0.6 83 1.0 WNW 54 61 29 33 974.8 - 2.2
31/06:59am 3.2 -9.0 0.6 83 1.0 WNW 54 59 29 32 974.7 - 2.2
31/06:48am 2.7 -10.1 0.4 85 0.9 NW 57 69 31 37 974.7 - 2.2
31/06:43am 2.6 -11.4 -0.2 82 1.0 WNW 63 89 34 48 974.7 - 2.2
31/06:40am 2.7 -10.9 -0.1 82 1.0 WNW 61 74 33 40 974.8 - 2.2
31/06:30am 2.7 -10.5 -0.1 82 1.0 W 59 78 32 42 974.9 - 2.2
31/06:28am 2.9 -10.3 0.0 81 1.1 W 59 78 32 42 974.9 - 2.2
31/06:26am 3.1 -10.5 -0.2 79 1.2 W 61 72 33 39 975.0 - 2.2
31/06:12am 3.3 -10.8 -0.7 75 1.5 WNW 63 82 34 44 974.1 - 2.2
31/06:05am 3.4 -10.9 0.3 80 1.2 NW 65 76 35 41 974.3 - 2.2
31/06:02am 3.3 -9.5 0.2 80 1.2 NNW 57 78 31 42 974.3 - 2.2
31/06:00am 3.3 -9.5 0.2 80 1.2 NNW 57 69 31 37 974.4 974.7 2.2
31/05:38am 1.9 -10.9 0.0 87 0.7 NNW 57 65 31 35 974.7 - 2.2
31/05:36am 2.0 -13.3 -0.1 86 0.8 WNW 70 89 38 48 974.7 - 2.2
31/05:33am 2.6 -13.2 -0.7 79 1.2 WNW 72 89 39 48 974.5 - 2.2
31/05:31am 3.5 -9.4 -0.3 76 1.4 NNW 57 78 31 42 974.5 - 2.2
31/05:30am 3.6 -8.7 -0.2 76 1.4 NNW 54 69 29 37 974.5 - 2.2
31/05:10am 2.9 -10.0 -0.7 77 1.3 N 57 65 31 35 974.5 - 2.2
31/05:01am 2.3 -12.1 -0.8 80 1.1 WNW 65 83 35 45 974.6 - 2.2
31/05:00am 2.1 -13.2 -1.7 76 1.3 WNW 69 83 37 45 974.6 - 2.2
31/04:58am 3.0 -12.2 -0.6 77 1.3 WNW 69 83 37 45 974.7 - 2.2
31/04:55am 3.6 -10.8 -0.2 76 1.4 NNW 65 76 35 41 974.3 - 2.2
31/04:48am 3.5 -10.5 0.0 78 1.3 N 63 70 34 38 974.4 - 2.2
31/04:44am 3.4 -9.4 0.1 79 1.2 NNW 57 76 31 41 974.4 - 2.2
31/04:30am 2.9 -10.0 -0.4 79 1.2 NNW 57 72 31 39 974.5 - 2.2
31/04:20am 2.8 -10.1 -0.5 79 1.2 NNW 57 76 31 41 974.5 - 2.2
31/04:12am 2.7 -11.1 -1.3 75 1.4 NNW 61 72 33 39 974.4 - 2.0
31/04:06am 2.7 -12.5 -0.9 77 1.3 N 69 76 37 41 974.4 - 2.0
31/04:00am 2.8 -9.4 0.4 84 0.9 NNW 54 65 29 35 974.6 - 2.0
31/03:49am 2.3 -9.9 0.5 88 0.7 NNW 54 61 29 33 974.8 - 2.0
31/03:44am 2.1 -11.8 0.3 88 0.7 NNE 63 72 34 39 974.8 - 2.0
31/03:43am 2.1 -13.5 0.2 87 0.7 NNW 72 91 39 49 974.8 - 2.0
31/03:39am 2.3 -14.9 0.0 85 0.8 NNW 80 91 43 49 974.7 - 2.0
31/03:36am 2.8 -14.4 0.0 82 1.0 N 80 91 43 49 974.7 - 2.0
31/03:32am 3.3 -11.8 0.0 79 1.2 NNW 69 89 37 48 974.6 - 2.0
31/03:30am 3.1 -11.7 -0.5 77 1.3 N 67 78 36 42 974.8 - 2.0
31/03:29am 3.0 -11.4 -0.6 77 1.3 N 65 76 35 41 974.8 - 2.0
31/03:20am 3.0 -9.8 0.1 81 1.1 NW 57 67 31 36 974.9 - 2.0
31/03:14am 3.1 -10.9 -0.2 79 1.2 N 63 72 34 39 975.1 - 2.0
31/03:09am 3.2 -10.4 -0.1 79 1.2 WNW 61 72 33 39 975.2 - 2.0
31/03:00am 3.8 -9.5 -0.4 74 1.6 NNW 59 70 32 38 975.0 975.3 2.0
31/02:57am 3.8 -9.1 -0.4 74 1.6 NNW 57 67 31 36 975.0 - 2.0
31/02:54am 3.7 -10.7 -0.7 73 1.6 N 65 72 35 39 974.9 - 2.0
31/02:45am 3.7 -9.6 -0.5 74 1.6 NNW 59 74 32 40 975.0 - 2.0
31/02:36am 3.7 -9.5 -0.3 75 1.5 N 59 67 32 36 975.2 - 2.0
31/02:30am 3.5 -10.2 -1.1 72 1.7 NNW 61 76 33 41 975.2 - 2.0
31/02:13am 3.6 -8.6 0.1 78 1.3 NNW 54 61 29 33 975.4 - 2.0
31/02:04am 3.5 -10.8 -0.1 77 1.3 N 65 72 35 39 975.4 - 2.0
31/02:02am 3.5 -10.1 -0.5 75 1.5 NNW 61 70 33 38 975.4 - 2.0
31/02:00am 3.4 -10.2 -0.2 77 1.3 N 61 72 33 39 975.5 - 2.0
31/01:32am 3.5 -10.1 0.0 78 1.3 N 61 80 33 43 975.8 - 2.0
31/01:30am 3.4 -10.6 -0.4 76 1.4 N 63 80 34 43 975.7 - 2.0
31/01:14am 3.3 -11.6 -1.1 73 1.6 N 67 85 36 46 975.7 - 2.0
31/01:13am 3.3 -11.2 -0.9 74 1.5 N 65 76 35 41 975.8 - 2.0
31/01:06am 3.4 -9.9 -0.6 75 1.5 NW 59 67 32 36 975.9 - 2.0
31/01:00am 3.6 -9.2 0.0 77 1.3 N 57 72 31 39 976.0 - 2.0
31/12:59am 3.5 -10.1 -0.5 75 1.5 N 61 72 33 39 975.9 - 2.0
31/12:57am 3.4 -10.3 -0.6 75 1.5 NW 61 72 33 39 975.9 - 2.0
31/12:49am 3.4 -10.3 -1.0 73 1.6 N 61 80 33 43 975.9 - 2.0
31/12:30am 3.3 -10.0 -0.5 76 1.4 N 59 74 32 40 976.1 - 2.0
31/12:25am 3.4 -10.3 -0.8 74 1.5 N 61 74 33 40 976.0 - 2.0
31/12:07am 3.3 -9.6 -0.3 77 1.3 NNW 57 69 31 37 976.2 - 2.0
31/12:01am 3.3 -9.6 -0.5 76 1.4 N 57 80 31 43 975.9 - 2.0
31/12:00am 3.3 -9.6 -0.3 77 1.4 N 57 70 31 38 976.0 976.3 2.0
 
Date/Time
EDT
Temp
°C
App
Temp
°C
Dew
Point
Rel
Hum
%
Delta-T
°C
Wind Press
QNH
hPa
Press
MSL
hPa
Rain
since 9 am
mm
Dir
 
Spd
km/h
Gust
km/h
Spd
kts
Gust
kts
30/11:30pm 2.5 -10.3 0.2 85 0.9 N 57 69 31 37 976.5 - 2.0
30/11:00pm 1.2 -12.0 0.2 93 0.4 N 59 74 32 40 976.7 - 2.0
30/10:50pm 1.3 -12.3 0.1 92 0.4 N 61 72 33 39 976.8 - 1.6
30/10:45pm 1.6 -13.5 -0.3 87 0.7 WNW 69 80 37 43 976.7 - 1.4
30/10:44pm 2.1 -13.0 -0.2 85 0.8 NW 69 80 37 43 976.7 - 1.4
30/10:30pm 3.5 -9.2 -0.3 76 1.4 N 56 78 30 42 976.4 - 1.4
30/10:28pm 3.5 -8.7 0.0 78 1.3 N 54 65 29 35 976.5 - 1.4
30/10:26pm 3.4 -10.3 -0.6 75 1.5 NNW 61 70 33 38 976.3 - 1.4
30/10:20pm 3.4 -9.5 -0.6 75 1.5 N 57 67 31 36 976.4 - 1.4
30/10:00pm 2.9 -9.3 0.3 83 1.0 NNW 54 65 29 35 976.5 - 1.2
30/09:53pm 2.8 -9.4 0.5 85 0.9 NNW 54 61 29 33 976.6 - 1.2
30/09:50pm 2.8 -9.3 0.7 86 0.8 N 54 61 29 33 976.6 - 1.2
30/09:49pm 2.7 -9.5 0.6 86 0.8 NNW 54 69 29 37 976.6 - 1.2
30/09:42pm 2.0 -10.2 0.4 89 0.6 WNW 54 65 29 35 976.7 - 1.2
30/09:40pm 2.1 -10.6 0.5 89 0.6 NNW 57 69 31 37 976.7 - 1.2
30/09:38pm 2.1 -9.3 0.3 88 0.7 WNW 50 70 27 38 976.7 - 1.2
30/09:30pm 2.2 -9.3 0.1 86 0.8 W 50 67 27 36 976.8 - 1.0
30/09:24pm 2.1 -9.1 -0.6 82 1.0 W 48 67 26 36 976.8 - 1.0
30/09:23pm 2.1 -9.9 -1.0 80 1.1 W 52 67 28 36 977.1 - 1.0
30/09:21pm 3.2 -10.3 0.3 81 1.1 WNW 61 69 33 37 977.0 - 1.0
30/09:00pm 3.2 -9.0 0.1 80 1.2 N 54 65 29 35 976.3 976.6 0.8
30/08:30pm 1.8 -10.7 0.5 91 0.5 N 56 69 30 37 976.4 - 0.8
30/08:23pm 1.8 -11.0 0.0 88 0.7 N 57 67 31 36 976.3 - 0.8
30/08:17pm 2.9 -10.3 -0.2 80 1.1 NW 59 82 32 44 976.5 - 0.8
30/08:07pm 3.1 -8.3 0.3 82 1.0 N 50 56 27 30 976.4 - 0.8
30/08:00pm 3.0 -8.8 0.2 82 1.0 WNW 52 67 28 36 976.4 - 0.8
30/07:30pm 2.4 -9.0 0.5 87 0.7 WNW 50 63 27 34 976.2 - 0.8
30/07:16pm 2.7 -8.3 0.6 86 0.8 NW 48 69 26 37 975.8 - 0.8
30/07:13pm 3.0 -7.0 1.2 88 0.7 NW 43 48 23 26 975.8 - 0.8
30/07:00pm 2.0 -8.3 0.2 88 0.7 W 44 61 24 33 975.9 - 0.8
30/06:31pm 2.3 -9.5 0.7 89 0.6 W 52 82 28 44 976.1 - 0.8
30/06:30pm 2.2 -10.0 0.6 89 0.6 W 54 70 29 38 976.0 - 0.8
30/06:20pm 2.9 -9.3 0.0 81 1.1 W 54 80 29 43 975.5 - 0.8
30/06:07pm 3.4 -8.8 0.6 82 1.1 W 54 63 29 34 975.4 - 0.8
30/06:00pm 3.4 -6.2 1.3 86 0.8 NNW 41 48 22 26 975.1 975.4 0.8
30/05:58pm 3.4 -5.8 1.3 86 0.8 NNW 39 48 21 26 975.2 - 0.8
30/05:30pm 2.4 -8.9 1.2 92 0.5 WNW 50 59 27 32 974.9 - 0.8
30/05:15pm 1.7 -13.0 0.4 91 0.5 WNW 67 85 36 46 975.0 - 0.4
30/05:07pm 2.5 -13.9 0.1 84 0.9 NW 76 83 41 45 974.4 - 0.2
30/05:04pm 3.9 -8.8 0.6 79 1.3 NNW 57 76 31 41 974.3 - 0.0
30/05:02pm 4.2 -7.9 0.7 78 1.3 NNW 54 65 29 35 974.3 - 0.0
30/05:00pm 4.2 -7.6 0.5 77 1.4 WNW 52 67 28 36 974.4 - 0.0
30/04:54pm 4.3 -7.9 0.6 77 1.4 WNW 54 67 29 36 974.3 - 0.0
30/04:49pm 4.3 -7.0 1.3 81 1.2 NNW 50 57 27 31 974.2 - 0.0
30/04:42pm 4.3 -8.3 1.2 80 1.2 N 57 65 31 35 974.0 - 0.0
30/04:39pm 4.3 -7.7 1.3 81 1.2 NNW 54 61 29 33 974.1 - 0.0
30/04:35pm 4.3 -8.3 1.3 81 1.2 NNE 57 63 31 34 974.0 - 0.0
30/04:33pm 4.5 -5.9 1.9 83 1.0 NNW 46 52 25 28 974.2 - 0.0
30/04:30pm 4.2 -5.9 1.7 84 1.0 WNW 44 54 24 29 974.1 - 0.0
30/04:29pm 4.1 -6.4 1.6 84 1.0 WNW 46 54 25 29 974.1 - 0.0
30/04:22pm 3.7 -7.6 1.3 84 0.9 NNW 50 57 27 31 974.1 - 0.0
30/04:18pm 3.3 -9.2 0.9 84 0.9 N 56 65 30 35 974.0 - 0.0
30/04:12pm 3.9 -9.2 0.8 80 1.2 WNW 59 69 32 37 974.0 - 0.0
30/04:11pm 4.4 -9.0 1.3 80 1.2 NNW 61 69 33 37 974.0 - 0.0
30/04:10pm 4.4 -8.6 1.1 79 1.3 N 59 69 32 37 973.8 - 0.0
30/04:07pm 4.3 -8.4 0.8 78 1.3 NNE 57 63 31 34 973.8 - 0.0
30/04:05pm 4.6 -7.4 1.3 79 1.3 NNW 54 61 29 33 973.7 - 0.0
30/04:02pm 4.5 -9.3 1.0 78 1.4 NNE 63 69 34 37 973.7 - 0.0
30/04:00pm 4.5 -8.9 1.0 78 1.4 NNW 61 74 33 40 973.8 - 0.0
30/03:49pm 4.6 -7.5 1.1 78 1.4 NNW 54 72 29 39 973.6 - 0.0
30/03:30pm 4.2 -8.9 0.7 78 1.3 N 59 74 32 40 973.5 - 0.0
30/03:21pm 4.8 -6.9 1.3 78 1.4 N 52 70 28 38 973.6 - 0.0
30/03:15pm 4.5 -7.1 1.4 80 1.2 NNW 52 61 28 33 973.7 - 0.0
30/03:10pm 4.4 -7.6 1.3 80 1.2 N 54 59 29 32 973.7 - 0.0
30/03:06pm 4.8 -6.4 2.0 82 1.1 NW 50 57 27 31 973.8 - 0.0
30/03:00pm 4.2 -7.9 1.1 80 1.2 WNW 54 67 29 36 974.0 974.3 0.0
30/02:55pm 4.4 -8.2 1.3 80 1.2 WNW 57 67 31 36 974.0 - 0.0
30/02:32pm 3.9 -10.3 0.8 80 1.2 N 65 74 35 40 973.8 - 0.0
30/02:30pm 4.3 -10.7 0.6 77 1.4 WNW 69 85 37 46 973.6 - 0.0
30/02:29pm 4.8 -9.4 0.6 74 1.6 NNW 65 85 35 46 973.6 - 0.0
30/02:13pm 5.8 -6.9 0.6 69 2.0 NNW 57 65 31 35 973.6 - 0.0
30/02:11pm 5.8 -7.0 0.4 68 2.1 NW 57 70 31 38 973.5 - 0.0
30/02:02pm 5.5 -6.3 0.7 71 1.9 N 52 70 28 38 973.6 - 0.0
30/02:00pm 5.5 -6.2 0.9 72 1.8 N 52 61 28 33 973.6 - 0.0
30/01:30pm 5.7 -7.0 0.7 70 1.9 N 57 72 31 39 973.6 - 0.0
30/01:26pm 5.5 -6.7 0.5 70 1.9 N 54 72 29 39 973.7 - 0.0
30/01:17pm 5.3 -6.9 0.3 70 1.9 NNW 54 69 29 37 973.8 - 0.0
30/01:15pm 5.5 -8.4 0.3 69 2.0 NNE 63 74 34 40 973.7 - 0.0
30/01:09pm 5.2 -7.0 0.2 70 1.9 NNW 54 65 29 35 973.7 - 0.0
30/01:04pm 5.7 -6.0 1.1 72 1.8 NNE 52 63 28 34 973.8 - 0.0
30/01:02pm 5.5 -5.9 0.7 71 1.9 NNW 50 56 27 30 973.8 - 0.0
30/01:00pm 5.6 -6.5 0.8 71 1.9 N 54 65 29 35 973.7 - 0.0
30/12:42pm 5.6 -6.9 0.8 71 1.9 N 56 65 30 35 973.8 - 0.0
30/12:34pm 5.4 -6.4 0.4 70 1.9 NNW 52 65 28 35 973.8 - 0.0
30/12:30pm 5.4 -7.2 0.2 69 2.0 N 56 65 30 35 973.7 - 0.0
30/12:20pm 5.4 -6.7 0.8 72 1.8 N 54 61 29 33 973.8 - 0.0
30/12:00pm 4.0 -8.7 -0.4 73 1.7 NNW 56 72 30 39 973.9 974.2 0.0
30/11:57am 4.9 -7.2 0.7 74 1.6 N 54 72 29 39 973.8 - 0.0
30/11:30am 5.4 -7.1 0.6 71 1.9 N 56 67 30 36 973.9 - 0.0
30/11:00am 6.1 -5.5 1.8 74 1.7 N 52 61 28 33 974.1 - 0.0
30/10:31am 4.8 -6.5 1.5 79 1.3 N 50 57 27 31 974.2 - 0.0
30/10:30am 4.6 -7.8 1.3 79 1.3 NW 56 80 30 43 974.1 - 0.0
30/10:21am 4.7 -8.8 0.7 75 1.5 NW 61 80 33 43 974.1 - 0.0
30/10:05am 5.7 -5.6 1.1 72 1.8 N 50 56 27 30 974.2 - 0.0
30/10:02am 5.8 -5.5 1.0 71 1.9 NNW 50 69 27 37 973.9 - 0.0
30/10:00am 5.7 -5.2 1.2 73 1.8 N 48 59 26 32 974.2 - 0.0
30/09:36am 5.5 -5.8 1.1 73 1.7 N 50 61 27 33 974.3 - 0.0
30/09:30am 5.3 -6.8 0.9 73 1.7 NNW 54 67 29 36 974.3 - 0.0
30/09:10am 5.4 -6.8 0.4 70 1.9 NNW 54 72 29 39 973.9 - 0.0
30/09:06am 5.5 -5.4 1.4 75 1.6 NNW 48 57 26 31 974.1 - 0.0
30/09:00am 5.4 -5.9 1.1 74 1.7 N 50 56 27 30 974.0 974.3 4.0
30/08:58am 5.4 -5.9 1.1 74 1.7 N 50 56 27 30 974.0 - 4.0
30/08:41am 5.2 -5.3 1.5 77 1.5 NNW 46 54 25 29 974.1 - 4.0
30/08:38am 5.1 -6.2 1.2 76 1.5 N 50 61 27 33 974.0 - 4.0
30/08:34am 5.2 -5.3 1.3 76 1.5 NNW 46 56 25 30 974.1 - 4.0
30/08:30am 5.4 -4.4 2.1 79 1.3 NW 43 52 23 28 974.2 - 4.0
30/08:00am 4.5 -6.3 1.9 83 1.0 N 48 56 26 30 974.0 - 4.0
30/07:54am 4.2 -7.0 1.6 83 1.0 N 50 56 27 30 974.0 - 4.0
30/07:50am 4.1 -7.2 1.5 83 1.0 NW 50 57 27 31 974.0 - 4.0
30/07:43am 4.2 -5.8 1.9 85 0.9 N 44 54 24 29 974.0 - 4.0
30/07:42am 4.2 -5.6 2.2 87 0.8 NNW 43 50 23 27 974.0 - 4.0
30/07:30am 3.0 -8.3 1.2 88 0.7 W 50 72 27 39 973.9 - 4.0
30/07:26am 2.6 -9.5 0.8 88 0.7 W 54 72 29 39 974.0 - 3.8
30/07:21am 2.4 -11.1 0.3 86 0.8 W 61 72 33 39 974.0 - 3.8
30/07:16am 3.5 -10.0 0.6 81 1.1 WNW 61 80 33 43 973.7 - 3.6
30/07:13am 4.9 -7.1 1.7 80 1.3 NW 54 61 29 33 973.6 - 3.6
30/07:10am 5.0 -6.2 1.7 79 1.3 N 50 57 27 31 973.5 - 3.6
30/07:08am 5.0 -7.0 1.7 79 1.3 NNW 54 59 29 32 973.4 - 3.6
30/07:06am 4.9 -6.0 1.6 79 1.3 N 48 56 26 30 973.4 - 3.6
30/07:00am 4.8 -6.5 1.5 79 1.3 NNW 50 61 27 33 973.3 - 3.6
30/06:30am 4.5 -6.3 1.7 82 1.1 N 48 61 26 33 973.2 - 3.6
30/06:22am 4.6 -6.6 1.8 82 1.1 N 50 61 27 33 973.1 - 3.6
30/06:00am 4.3 -8.1 1.3 81 1.2 NW 56 70 30 38 972.9 973.2 3.6
30/05:30am 4.4 -7.6 1.6 82 1.1 NW 54 65 29 35 972.7 - 3.6
30/05:19am 4.4 -7.6 1.4 81 1.2 NNW 54 69 29 37 972.5 - 3.6
30/05:05am 4.4 -6.5 1.4 81 1.2 N 48 57 26 31 972.5 - 3.6
30/05:00am 4.4 -6.8 1.6 82 1.1 NNW 50 61 27 33 972.5 - 3.6
30/04:40am 4.3 -7.0 1.5 82 1.1 NW 50 57 27 31 972.3 - 3.6
30/04:30am 4.4 -7.2 1.8 83 1.0 N 52 61 28 33 972.2 - 3.6
30/04:00am 3.9 -7.3 1.9 87 0.8 N 50 59 27 32 972.2 - 3.6
30/03:40am 3.9 -8.0 2.1 88 0.7 N 54 63 29 34 972.0 - 3.6
30/03:30am 3.8 -7.8 2.0 88 0.7 NW 52 63 28 34 971.8 - 3.6
30/03:18am 3.8 -6.6 2.2 89 0.6 NW 46 65 25 35 972.0 - 3.6
30/03:00am 3.4 -6.7 1.8 89 0.6 W 44 57 24 31 971.9 972.2 3.6
30/02:37am 3.3 -8.3 2.0 91 0.5 W 52 72 28 39 971.6 - 3.6
30/02:34am 3.6 -7.5 2.4 92 0.5 W 50 61 27 33 971.7 - 3.6
30/02:31am 3.6 -8.6 2.4 92 0.5 NW 56 65 30 35 971.6 - 3.4
30/02:30am 3.6 -8.6 2.4 92 0.5 N 56 70 30 38 971.5 - 3.4
30/02:28am 3.5 -8.4 2.3 92 0.5 N 54 67 29 36 971.4 - 3.4
30/02:24am 3.7 -7.0 2.5 92 0.5 NW 48 56 26 30 971.4 - 3.4
30/02:14am 4.3 -8.0 3.3 93 0.4 NNW 57 76 31 41 971.3 - 3.2
30/02:12am 4.2 -9.6 3.2 93 0.4 N 65 76 35 41 970.9 - 3.2
30/02:09am 4.1 -5.5 3.2 94 0.4 N 43 61 23 33 971.3 - 3.2
30/02:00am 4.0 -4.5 3.1 94 0.4 N 37 46 20 25 971.6 - 2.8
30/01:30am 3.2 -6.6 2.2 93 0.4 N 43 56 23 30 972.6 - 2.2
30/01:00am 3.1 -6.8 1.8 91 0.5 N 43 56 23 30 973.6 - 0.8
30/12:30am 3.3 -6.6 1.7 89 0.6 N 43 52 23 28 974.5 - 0.2
30/12:00am 3.8 -4.6 1.7 86 0.8 N 35 46 19 25 975.6 975.9 0.0
 
Date/Time
EDT
Temp
°C
App
Temp
°C
Dew
Point
Rel
Hum
%
Delta-T
°C
Wind Press
QNH
hPa
Press
MSL
hPa
Rain
since 9 am
mm
Dir
 
Spd
km/h
Gust
km/h
Spd
kts
Gust
kts
29/11:30pm 3.8 -4.6 1.5 85 0.9 N 35 44 19 24 976.6 - 0.0
29/11:00pm 3.6 -5.7 0.8 82 1.1 NNW 39 44 21 24 977.5 - 0.0
29/10:30pm 3.4 -4.8 0.5 81 1.1 NNW 33 39 18 21 978.2 - 0.0
29/10:00pm 2.9 -3.2 0.5 84 0.9 NNW 22 28 12 15 978.9 - 0.0
29/09:30pm 2.6 -3.9 0.2 84 0.9 NNW 24 30 13 16 979.7 - 0.0
29/09:00pm 2.2 -4.4 -0.5 82 1.0 NNE 24 28 13 15 980.1 980.4 0.0
29/08:30pm 2.0 -4.6 -0.6 83 0.9 NW 24 26 13 14 980.5 - 0.0
29/08:00pm 1.9 -4.3 -0.5 84 0.9 W 22 28 12 15 980.6 - 0.0
29/07:30pm 2.3 -5.3 0.4 87 0.7 W 30 37 16 20 980.8 - 0.0
29/07:00pm 2.5 -4.7 0.7 88 0.7 W 28 39 15 21 980.9 - 0.0
29/06:30pm 2.5 -5.1 0.4 86 0.8 WSW 30 39 16 21 980.9 - 0.0
29/06:00pm 2.9 -4.6 1.0 87 0.7 W 30 44 16 24 981.2 981.5 0.0
29/05:30pm 2.8 -3.6 0.9 87 0.7 W 24 43 13 23 981.2 - 0.0
29/05:00pm 2.8 -4.0 0.7 86 0.8 W 26 48 14 26 981.1 - 0.0
29/04:30pm 2.9 -4.3 1.0 87 0.7 WSW 28 46 15 25 980.9 - 0.0
29/04:00pm 3.1 -4.8 1.2 87 0.7 WSW 32 52 17 28 981.1 - 0.0
29/03:30pm 3.3 -4.8 1.3 87 0.8 WSW 33 56 18 30 980.5 - 0.0
29/03:00pm 3.5 -5.7 1.4 86 0.8 WSW 39 61 21 33 980.5 980.8 0.0
29/02:30pm 3.5 -6.0 1.5 87 0.8 WSW 41 61 22 33 980.3 - 0.0
29/02:00pm 3.9 -4.9 1.6 85 0.9 WSW 37 61 20 33 980.3 - 0.0
29/01:30pm 4.4 -4.3 1.9 84 1.0 WSW 37 57 20 31 980.1 - 0.0
29/01:00pm 4.3 -3.6 2.0 85 0.9 WSW 33 57 18 31 979.9 - 0.0
29/12:30pm 4.4 -5.4 2.3 86 0.8 WSW 43 67 23 36 979.7 - 0.0
29/12:00pm 4.8 -5.0 2.3 84 1.0 WSW 43 65 23 35 979.3 979.6 0.0
29/11:30am 4.2 -5.5 2.6 89 0.6 WSW 43 76 23 41 978.9 - 0.0
29/11:00am 4.3 -4.7 2.7 89 0.6 WSW 39 61 21 33 978.8 - 0.0
29/10:33am 4.6 -3.2 3.1 90 0.6 SW 33 54 18 29 978.4 - 0.0
29/10:30am 4.6 -3.6 2.9 89 0.7 SW 35 52 19 28 978.3 - 0.0
29/10:00am 4.9 -2.7 3.1 88 0.7 SW 32 52 17 28 978.0 - 0.0
29/09:30am 4.8 -2.3 3.3 90 0.6 SSW 30 56 16 30 977.6 - 0.0
29/09:00am 4.5 -2.7 3.2 91 0.5 SSW 30 56 16 30 977.4 977.7 9.2
29/08:30am 4.3 -2.5 3.0 91 0.5 SSW 28 52 15 28 977.0 - 9.2
29/08:05am 4.2 -3.1 2.7 90 0.6 SSW 30 52 16 28 976.8 - 9.2
29/08:00am 4.2 -3.6 2.9 91 0.5 SSW 33 50 18 27 976.7 - 9.2
29/07:46am 4.2 -4.0 2.9 91 0.5 SSW 35 59 19 32 976.4 - 9.2
29/07:30am 4.2 -3.6 2.9 91 0.5 SSW 33 46 18 25 976.3 - 9.2
29/07:00am 4.5 -0.2 3.3 92 0.5 S 17 30 9 16 976.0 - 9.2
29/06:30am 4.5 -1.5 3.3 92 0.5 S 24 32 13 17 975.4 - 9.2
29/06:00am 4.4 -1.6 3.4 93 0.4 S 24 32 13 17 974.9 975.2 9.2
29/05:30am 4.3 -1.7 3.3 93 0.4 S 24 30 13 16 974.5 - 9.2
29/05:00am 4.2 -1.8 3.2 93 0.4 S 24 32 13 17 974.0 - 9.2
29/04:30am 4.3 -2.1 3.4 94 0.4 S 26 32 14 17 973.7 - 9.0
29/04:00am 4.2 -2.6 3.3 94 0.4 S 28 35 15 19 973.3 - 9.0
29/03:30am 4.3 -2.0 3.6 95 0.3 S 26 37 14 20 973.1 - 8.8
29/03:00am 4.3 -1.3 3.6 95 0.3 S 22 32 12 17 972.9 973.2 8.8
29/02:30am 4.4 -1.9 3.7 95 0.3 S 26 30 14 16 972.8 - 8.8
29/02:00am 4.5 -1.4 3.8 95 0.3 S 24 30 13 16 972.7 - 8.6
29/01:30am 4.6 -0.9 3.9 95 0.3 S 22 30 12 16 972.6 - 8.6
29/01:00am 4.6 -1.3 3.9 95 0.3 SSE 24 32 13 17 972.5 - 8.4
29/12:30am 4.6 -1.7 3.9 95 0.3 S 26 32 14 17 972.5 - 7.8

Other Formats:

Comma delimited format used in spreadsheet applications
http://www.bom.gov.au/fwo/IDT60801/IDT60801.94998.axf

JavaScript Object Notation format (JSON) in row-major order
http://www.bom.gov.au/fwo/IDT60801/IDT60801.94998.json